Terminal Aerodrome Forecast
Issued by NWS

Home | Current Version | Previous Version | Text Only | Print | Product List | Glossary On
Versions: 1 2 3 4 5 6 7 8 9 10 11 12 13 14
000
FTUS42 KMLB 131700
TAFSUA
TAF
KSUA 131736Z 1318/1418 11010KT P6SM VCTS SCT030CB SCT080 BKN250
      TEMPO 1318/1319 5SM SHRA BKN030
     FM132100 12008KT P6SM SCT035 BKN080
     FM140200 14003KT P6SM SCT030 BKN120=

USA.gov is the U.S. government's official web portal to all federal, state and local government web resources and services.